Terminal Aerodrome Forecast
Issued by NWS Birmingham, AL

Home | Current Version | Previous Version | Text Only | Print | Product List | Glossary On
Versions: 1 2 3 4 5 6 7 8 9 10 11 12 13 14 15 16 17 18 19
000
FTUS44 KBMX 010040 AAC
TAFBHM
TAF AMD
KBHM 010040Z 0101/0124 20012KT P6SM VCSH BKN090
     FM010400 16004KT P6SM BKN090
     FM010900 19006KT P6SM VCSH OVC015
     FM011500 20007KT P6SM SHRA VCTS OVC040CB=

USA.gov is the U.S. government's official web portal to all federal, state and local government web resources and services.